Time;durP1;ratioP1;P1;durP2;ratioP2;P2;SDS_P1;SDS_P2;PMS_P1;PMS_P2;Temp;Humidity;BMP_temperature;BMP_pressure;BME280_temperature;BME280_humidity;BME280_pressure;Samples;Min_cycle;Max_cycle;Signal;HPM_P1;HPM_P2
2024/01/27 00:02:06;;;;;;;;;;;5.60;82.10;;;;;;5072548;28;19933;-76
2024/01/27 00:04:39;;;;;;;;;;;5.60;82.10;;;;;;5073653;28;19943;-76
2024/01/27 00:07:12;;;;;;;;;;;5.60;82.10;;;;;;5075014;28;19930;-75
2024/01/27 00:09:45;;;;;;;;;;;5.50;81.90;;;;;;5074372;28;19924;-73
2024/01/27 00:12:20;;;;;;;;;;;5.50;82.20;;;;;;5071349;28;19934;-74
2024/01/27 00:14:53;;;;;;;;;;;5.50;82.10;;;;;;5072706;28;20003;-75
2024/01/27 00:17:27;;;;;;;;;;;5.50;82.00;;;;;;5070233;28;19932;-73
2024/01/27 00:20:00;;;;;;;;;;;5.40;82.10;;;;;;5077746;28;19931;-72
2024/01/27 00:22:33;;;;;;;;;;;5.40;82.30;;;;;;5076837;28;19935;-72
2024/01/27 00:25:07;;;;;;;;;;;5.30;82.50;;;;;;5076859;28;19928;-74
2024/01/27 00:27:42;;;;;;;;;;;5.30;82.60;;;;;;5078230;28;19928;-74
2024/01/27 00:30:15;;;;;;;;;;;5.20;82.70;;;;;;5076215;28;20030;-74
2024/01/27 00:32:48;;;;;;;;;;;5.20;82.80;;;;;;5078438;28;19924;-75
2024/01/27 00:35:21;;;;;;;;;;;5.10;82.90;;;;;;5073779;28;19956;-77
2024/01/27 00:37:48;;;;;;;;;;;5.10;82.90;;;;;;5078410;28;19981;-73
2024/01/27 00:40:21;;;;;;;;;;;5.10;82.90;;;;;;5076513;28;19932;-69
2024/01/27 00:42:56;;;;;;;;;;;5.10;82.80;;;;;;5078283;28;19930;-68
2024/01/27 00:45:30;;;;;;;;;;;5.10;82.80;;;;;;5075098;28;20291;-68
2024/01/27 00:48:04;;;;;;;;;;;5.00;82.60;;;;;;5073155;28;20390;-67
2024/01/27 00:50:37;;;;;;;;;;;4.90;82.80;;;;;;5076816;28;19977;-68
2024/01/27 00:53:10;;;;;;;;;;;4.90;82.80;;;;;;5077960;28;20795;-67
2024/01/27 00:55:43;;;;;;;;;;;4.90;82.80;;;;;;5076345;28;19928;-69
2024/01/27 00:58:18;;;;;;;;;;;5.00;82.60;;;;;;5077220;28;19931;-69
2024/01/27 01:00:52;;;;;;;;;;;4.90;82.60;;;;;;5076633;28;20464;-68
2024/01/27 01:03:32;;;;;;;;;;;4.90;82.70;;;;;;5080782;28;20282;-68
2024/01/27 01:06:05;;;;;;;;;;;4.80;82.80;;;;;;5080286;28;19971;-68
2024/01/27 01:08:32;;;;;;;;;;;4.80;83.00;;;;;;5078163;28;19932;-68
2024/01/27 01:11:05;;;;;;;;;;;4.80;82.90;;;;;;5060812;28;19939;-68
2024/01/27 01:13:40;;;;;;;;;;;4.70;82.90;;;;;;5074901;28;19950;-68
2024/01/27 01:16:13;;;;;;;;;;;4.70;82.90;;;;;;5076791;28;20375;-69
2024/01/27 01:18:46;;;;;;;;;;;4.70;82.80;;;;;;5079992;28;19943;-68
2024/01/27 01:21:19;;;;;;;;;;;4.70;82.90;;;;;;5080237;28;20019;-67
2024/01/27 01:23:52;;;;;;;;;;;4.60;82.80;;;;;;5080208;28;19924;-67
2024/01/27 01:26:19;;;;;;;;;;;4.60;82.80;;;;;;5079185;28;19932;-69
2024/01/27 01:28:54;;;;;;;;;;;4.60;82.80;;;;;;5080674;28;20387;-69
2024/01/27 01:31:27;;;;;;;;;;;4.50;82.80;;;;;;5076289;28;20012;-69
2024/01/27 01:34:00;;;;;;;;;;;4.50;83.00;;;;;;5079428;28;19924;-68
2024/01/27 01:36:33;;;;;;;;;;;4.50;83.30;;;;;;5079618;28;19928;-67
2024/01/27 01:39:07;;;;;;;;;;;4.50;83.40;;;;;;5079339;28;20255;-68
2024/01/27 01:41:40;;;;;;;;;;;4.50;83.40;;;;;;5077957;28;19939;-68
2024/01/27 01:44:15;;;;;;;;;;;4.40;83.40;;;;;;5059133;28;20387;-67
2024/01/27 01:46:48;;;;;;;;;;;4.40;83.50;;;;;;5062583;28;19969;-69
2024/01/27 01:49:21;;;;;;;;;;;4.40;83.40;;;;;;5078595;28;20470;-73
2024/01/27 01:51:54;;;;;;;;;;;4.30;83.60;;;;;;5081006;28;20371;-73
2024/01/27 01:54:28;;;;;;;;;;;4.40;83.40;;;;;;5080201;28;19924;-73
2024/01/27 01:57:01;;;;;;;;;;;4.30;83.60;;;;;;5079362;28;20481;-73
2024/01/27 01:59:40;;;;;;;;;;;4.30;83.60;;;;;;5074978;28;20033;-73
2024/01/27 02:02:13;;;;;;;;;;;4.30;83.50;;;;;;5073576;28;19933;-74
2024/01/27 02:04:46;;;;;;;;;;;4.30;83.60;;;;;;5068471;28;19928;-74
2024/01/27 02:07:19;;;;;;;;;;;4.30;83.60;;;;;;5079038;28;20282;-74
2024/01/27 02:09:52;;;;;;;;;;;4.20;83.80;;;;;;5077241;28;20297;-74
2024/01/27 02:12:25;;;;;;;;;;;4.20;83.80;;;;;;5073040;28;20307;-74
2024/01/27 02:15:00;;;;;;;;;;;4.20;83.90;;;;;;5076414;28;19928;-74
2024/01/27 02:17:33;;;;;;;;;;;4.20;83.80;;;;;;5078913;28;19924;-74
2024/01/27 02:20:07;;;;;;;;;;;4.20;83.70;;;;;;5077176;28;19925;-74
2024/01/27 02:22:40;;;;;;;;;;;4.20;83.90;;;;;;5079174;28;19948;-73
2024/01/27 02:25:15;;;;;;;;;;;4.20;83.70;;;;;;5077968;28;19990;-72
2024/01/27 02:27:48;;;;;;;;;;;4.20;83.80;;;;;;5077559;28;20393;-74
2024/01/27 02:30:21;;;;;;;;;;;4.20;84.00;;;;;;5081999;28;20362;-74
2024/01/27 02:32:54;;;;;;;;;;;4.20;84.00;;;;;;5075822;28;19943;-76
2024/01/27 02:35:27;;;;;;;;;;;4.20;84.00;;;;;;5073331;28;19936;-74
2024/01/27 02:38:00;;;;;;;;;;;4.10;83.90;;;;;;5078333;28;19928;-74
2024/01/27 02:40:35;;;;;;;;;;;4.00;84.00;;;;;;5073747;28;19935;-73
2024/01/27 02:43:08;;;;;;;;;;;3.90;84.00;;;;;;5077092;28;19989;-73
2024/01/27 02:45:41;;;;;;;;;;;3.90;84.00;;;;;;5069802;28;20048;-72
2024/01/27 02:48:14;;;;;;;;;;;3.90;84.10;;;;;;5073388;28;19924;-72
2024/01/27 02:50:47;;;;;;;;;;;3.90;84.00;;;;;;5077979;28;19939;-73
2024/01/27 02:53:20;;;;;;;;;;;3.90;83.90;;;;;;5078131;28;19924;-75
2024/01/27 02:55:55;;;;;;;;;;;3.90;84.00;;;;;;5078174;28;19962;-76
2024/01/27 02:58:28;;;;;;;;;;;3.90;83.90;;;;;;5075133;28;19940;-72
2024/01/27 03:01:01;;;;;;;;;;;3.80;84.20;;;;;;5076996;28;19943;-68
2024/01/27 03:03:34;;;;;;;;;;;3.70;84.30;;;;;;5076509;28;19933;-68
2024/01/27 03:06:07;;;;;;;;;;;3.80;84.20;;;;;;5069929;28;20359;-68
2024/01/27 03:08:40;;;;;;;;;;;3.70;84.10;;;;;;5077375;28;19950;-69
2024/01/27 03:11:15;;;;;;;;;;;3.70;84.00;;;;;;5077338;28;20006;-69
2024/01/27 03:13:48;;;;;;;;;;;3.70;84.10;;;;;;5076260;28;19932;-68
2024/01/27 03:16:21;;;;;;;;;;;3.70;84.20;;;;;;5074996;28;20310;-69
2024/01/27 03:19:01;;;;;;;;;;;3.70;84.00;;;;;;5076898;28;19936;-67
2024/01/27 03:21:34;;;;;;;;;;;3.70;84.00;;;;;;5077596;28;19947;-69
2024/01/27 03:24:07;;;;;;;;;;;3.60;84.00;;;;;;5077384;28;20454;-68
2024/01/27 03:26:42;;;;;;;;;;;3.60;83.90;;;;;;5076657;28;20592;-68
2024/01/27 03:29:15;;;;;;;;;;;3.60;83.90;;;;;;5074686;28;19928;-67
2024/01/27 03:31:49;;;;;;;;;;;3.50;83.90;;;;;;5069020;28;19928;-68
2024/01/27 03:34:24;;;;;;;;;;;3.50;83.80;;;;;;5072015;28;19932;-66
2024/01/27 03:36:57;;;;;;;;;;;3.50;83.80;;;;;;5074185;28;19938;-68
2024/01/27 03:39:30;;;;;;;;;;;3.40;83.80;;;;;;5075143;28;19939;-69
2024/01/27 03:42:05;;;;;;;;;;;3.30;83.90;;;;;;5070850;28;19999;-68
2024/01/27 03:44:38;;;;;;;;;;;3.30;83.80;;;;;;5075407;28;19931;-68
2024/01/27 03:47:11;;;;;;;;;;;3.40;83.90;;;;;;5065672;28;19940;-69
2024/01/27 03:49:44;;;;;;;;;;;3.30;83.90;;;;;;5089077;28;19931;-70
2024/01/27 03:52:17;;;;;;;;;;;3.30;83.70;;;;;;5078424;28;19929;-69
2024/01/27 03:54:50;;;;;;;;;;;3.30;83.80;;;;;;5078240;28;19930;-69
2024/01/27 03:57:25;;;;;;;;;;;3.30;83.80;;;;;;5075255;28;20010;-67
2024/01/27 03:59:58;;;;;;;;;;;3.20;83.80;;;;;;5073898;28;19932;-69
2024/01/27 04:02:33;;;;;;;;;;;3.30;83.90;;;;;;5074203;28;19980;-70
2024/01/27 04:05:07;;;;;;;;;;;3.20;83.80;;;;;;5076146;28;19963;-67
2024/01/27 04:07:40;;;;;;;;;;;3.20;83.80;;;;;;5076627;28;19930;-67
2024/01/27 04:10:13;;;;;;;;;;;3.20;83.90;;;;;;5076235;28;19924;-74
2024/01/27 04:12:48;;;;;;;;;;;3.20;83.70;;;;;;5075946;28;19933;-73
2024/01/27 04:15:21;;;;;;;;;;;3.20;83.50;;;;;;5070424;28;22782;-72
2024/01/27 04:17:55;;;;;;;;;;;3.10;83.70;;;;;;5076931;28;19928;-72
2024/01/27 04:20:22;;;;;;;;;;;3.10;83.50;;;;;;5069472;28;19932;-74
2024/01/27 04:22:54;;;;;;;;;;;3.10;83.40;;;;;;5066000;28;19927;-76
2024/01/27 04:25:27;;;;;;;;;;;3.10;83.40;;;;;;5078617;28;20431;-75
2024/01/27 04:28:02;;;;;;;;;;;3.00;83.50;;;;;;5076984;28;20003;-74
2024/01/27 04:30:34;;;;;;;;;;;3.00;83.50;;;;;;5076222;28;19935;-76
2024/01/27 04:33:07;;;;;;;;;;;2.90;83.50;;;;;;5072785;28;19933;-75
2024/01/27 04:35:40;;;;;;;;;;;2.90;83.40;;;;;;5070893;28;19932;-75
2024/01/27 04:38:13;;;;;;;;;;;2.80;83.50;;;;;;5073937;28;19935;-75
2024/01/27 04:40:46;;;;;;;;;;;2.80;83.70;;;;;;5074928;28;19935;-74
2024/01/27 04:43:21;;;;;;;;;;;2.80;83.60;;;;;;5076593;28;20467;-75
2024/01/27 04:45:54;;;;;;;;;;;2.80;83.60;;;;;;5070363;28;19989;-74
2024/01/27 04:48:27;;;;;;;;;;;2.80;83.50;;;;;;5075982;28;20009;-72
2024/01/27 04:51:00;;;;;;;;;;;2.80;83.40;;;;;;5075144;28;20478;-73
2024/01/27 04:53:33;;;;;;;;;;;2.80;83.40;;;;;;5076120;28;20375;-75
2024/01/27 04:56:07;;;;;;;;;;;2.80;83.30;;;;;;5077429;28;19928;-74
2024/01/27 04:58:42;;;;;;;;;;;2.70;83.50;;;;;;5076559;28;20341;-74
2024/01/27 05:01:15;;;;;;;;;;;2.70;83.70;;;;;;5075349;28;20599;-75
2024/01/27 05:03:48;;;;;;;;;;;2.60;83.60;;;;;;5068258;28;19948;-73
2024/01/27 05:06:21;;;;;;;;;;;2.60;83.70;;;;;;5077887;28;26372;-72
2024/01/27 05:12:30;;;;;;;;;;;2.60;83.60;;;;;;5057209;28;19924;-74
2024/01/27 05:15:05;;;;;;;;;;;2.60;83.60;;;;;;5069436;28;19930;-73
2024/01/27 05:17:38;;;;;;;;;;;2.60;83.60;;;;;;5063761;28;19936;-74
2024/01/27 05:20:11;;;;;;;;;;;2.50;83.60;;;;;;5075889;28;19925;-77
2024/01/27 05:22:44;;;;;;;;;;;2.50;83.80;;;;;;5075467;28;19928;-79
2024/01/27 05:25:17;;;;;;;;;;;2.50;83.60;;;;;;5074815;28;19979;-79
2024/01/27 05:27:50;;;;;;;;;;;2.40;83.70;;;;;;5075156;28;20383;-76
2024/01/27 05:30:25;;;;;;;;;;;2.40;83.60;;;;;;5079885;28;20371;-75
2024/01/27 05:32:58;;;;;;;;;;;2.50;83.60;;;;;;5077592;28;19985;-77
2024/01/27 05:35:31;;;;;;;;;;;2.50;83.70;;;;;;5075480;28;20004;-75
2024/01/27 05:38:04;;;;;;;;;;;2.40;83.60;;;;;;5084656;28;19975;-76
2024/01/27 05:40:37;;;;;;;;;;;2.30;83.70;;;;;;5081088;28;19994;-76
2024/01/27 05:43:10;;;;;;;;;;;2.30;83.80;;;;;;5073574;28;19928;-74
2024/01/27 05:45:38;;;;;;;;;;;2.30;83.90;;;;;;5076116;28;19940;-78
2024/01/27 05:48:11;;;;;;;;;;;2.40;84.00;;;;;;5083163;28;19979;-77
2024/01/27 05:50:44;;;;;;;;;;;2.30;84.10;;;;;;5082656;28;19963;-77
2024/01/27 05:53:11;;;;;;;;;;;2.30;84.00;;;;;;5081224;28;19932;-76
2024/01/27 05:55:45;;;;;;;;;;;2.30;84.10;;;;;;5082517;28;19931;-76
2024/01/27 05:58:20;;;;;;;;;;;2.20;83.90;;;;;;5080566;28;19970;-77
2024/01/27 06:00:55;;;;;;;;;;;2.20;84.00;;;;;;5078025;28;20275;-75
2024/01/27 06:03:28;;;;;;;;;;;2.20;84.10;;;;;;5076653;28;20046;-78
2024/01/27 06:06:02;;;;;;;;;;;2.20;84.00;;;;;;5083151;28;20073;-79
2024/01/27 06:08:35;;;;;;;;;;;2.20;84.00;;;;;;5080485;28;19963;-77
2024/01/27 06:11:07;;;;;;;;;;;2.20;84.00;;;;;;5081453;28;20766;-78
2024/01/27 06:13:34;;;;;;;;;;;2.10;84.00;;;;;;5080837;28;19932;-78
2024/01/27 06:16:09;;;;;;;;;;;2.10;83.90;;;;;;5079274;28;19933;-76
2024/01/27 06:18:42;;;;;;;;;;;2.10;84.00;;;;;;5080643;28;19959;-78
2024/01/27 06:21:15;;;;;;;;;;;2.10;84.00;;;;;;5077006;28;19924;-78
2024/01/27 06:23:48;;;;;;;;;;;2.20;83.90;;;;;;5076239;28;19931;-78
2024/01/27 06:26:21;;;;;;;;;;;2.10;83.90;;;;;;5077556;28;20947;-77
2024/01/27 06:28:54;;;;;;;;;;;2.00;84.10;;;;;;5079846;28;20433;-77
2024/01/27 06:31:29;;;;;;;;;;;2.00;84.00;;;;;;5072843;28;19928;-63
2024/01/27 06:34:01;;;;;;;;;;;2.00;83.90;;;;;;5076344;28;20290;-62
2024/01/27 06:36:34;;;;;;;;;;;2.00;83.90;;;;;;5077493;28;20307;-63
2024/01/27 06:39:08;;;;;;;;;;;2.00;84.00;;;;;;5073985;28;19955;-62
2024/01/27 06:41:41;;;;;;;;;;;1.90;84.20;;;;;;5069106;28;19950;-62
2024/01/27 06:44:14;;;;;;;;;;;1.90;84.10;;;;;;5076043;28;19927;-61
2024/01/27 06:46:49;;;;;;;;;;;1.90;84.20;;;;;;5076386;28;19934;-63
2024/01/27 06:49:22;;;;;;;;;;;1.90;84.10;;;;;;5075387;28;20337;-62
2024/01/27 06:51:49;;;;;;;;;;;1.90;84.00;;;;;;5069165;28;19982;-62
2024/01/27 06:54:22;;;;;;;;;;;1.90;84.10;;;;;;5074304;28;19939;-65
2024/01/27 06:56:55;;;;;;;;;;;1.90;84.10;;;;;;5077527;28;19963;-62
2024/01/27 06:59:28;;;;;;;;;;;1.80;84.10;;;;;;5076674;28;19928;-63
2024/01/27 07:02:03;;;;;;;;;;;1.80;84.30;;;;;;5075982;28;19985;-62
2024/01/27 07:04:36;;;;;;;;;;;1.80;84.20;;;;;;5074667;28;20366;-62
2024/01/27 07:07:09;;;;;;;;;;;1.80;84.20;;;;;;5077050;28;19970;-60
2024/01/27 07:09:43;;;;;;;;;;;1.80;84.20;;;;;;5072057;28;19928;-62
2024/01/27 07:12:15;;;;;;;;;;;1.70;84.40;;;;;;5075510;28;19929;-61
2024/01/27 07:14:49;;;;;;;;;;;1.80;84.40;;;;;;5074847;28;19924;-62
2024/01/27 07:17:23;;;;;;;;;;;1.80;84.10;;;;;;5076503;28;19928;-61
2024/01/27 07:19:56;;;;;;;;;;;1.80;84.20;;;;;;5075112;28;19935;-61
2024/01/27 07:22:29;;;;;;;;;;;1.80;84.20;;;;;;5076140;28;19928;-63
2024/01/27 07:25:02;;;;;;;;;;;1.70;84.30;;;;;;5072841;28;19935;-63
2024/01/27 07:27:35;;;;;;;;;;;1.80;84.40;;;;;;5076449;28;20010;-62
2024/01/27 07:30:10;;;;;;;;;;;1.70;84.40;;;;;;5075246;28;19932;-61
2024/01/27 07:32:45;;;;;;;;;;;1.70;84.40;;;;;;5077274;28;19973;-62
2024/01/27 07:35:17;;;;;;;;;;;1.80;84.40;;;;;;5078436;28;19938;-62
2024/01/27 07:37:50;;;;;;;;;;;1.80;84.30;;;;;;5078273;28;19994;-62
2024/01/27 07:40:23;;;;;;;;;;;1.70;84.40;;;;;;5076350;28;19935;-65
2024/01/27 07:42:57;;;;;;;;;;;1.80;84.50;;;;;;5076058;28;19935;-61
2024/01/27 07:45:29;;;;;;;;;;;1.80;84.50;;;;;;5076432;28;20375;-62
2024/01/27 07:48:04;;;;;;;;;;;1.80;84.60;;;;;;5076264;28;19928;-63
2024/01/27 07:50:38;;;;;;;;;;;1.80;84.60;;;;;;5076308;28;19928;-62
2024/01/27 07:53:10;;;;;;;;;;;1.80;84.60;;;;;;5077291;28;19954;-61
2024/01/27 07:55:44;;;;;;;;;;;1.80;84.50;;;;;;5075315;28;19951;-62
2024/01/27 07:58:16;;;;;;;;;;;1.80;84.60;;;;;;5074843;28;19925;-62
2024/01/27 08:00:49;;;;;;;;;;;1.80;84.50;;;;;;5074555;28;19946;-61
2024/01/27 08:03:17;;;;;;;;;;;1.80;84.60;;;;;;5075034;28;19990;-63
2024/01/27 08:05:50;;;;;;;;;;;1.80;84.60;;;;;;5074619;28;19925;-62
2024/01/27 08:08:23;;;;;;;;;;;1.80;84.80;;;;;;5075737;28;19925;-62
2024/01/27 08:10:56;;;;;;;;;;;1.80;84.90;;;;;;5076806;28;20438;-62
2024/01/27 08:13:29;;;;;;;;;;;1.80;85.00;;;;;;5074929;28;20640;-62
2024/01/27 08:16:12;;;;;;;;;;;1.90;85.00;;;;;;5075798;28;19939;-63
2024/01/27 08:18:47;;;;;;;;;;;1.90;85.00;;;;;;5075643;28;20303;-62
2024/01/27 08:21:20;;;;;;;;;;;1.90;85.10;;;;;;5076060;28;19925;-62
2024/01/27 08:23:54;;;;;;;;;;;1.90;85.00;;;;;;5070919;28;19954;-62
2024/01/27 08:26:26;;;;;;;;;;;1.90;85.20;;;;;;5072973;28;19939;-62
2024/01/27 08:29:06;;;;;;;;;;;1.90;85.20;;;;;;5077817;28;20011;-62
2024/01/27 08:31:39;;;;;;;;;;;1.90;85.20;;;;;;5076861;28;19935;-62
2024/01/27 08:34:14;;;;;;;;;;;1.90;85.20;;;;;;5070926;28;20030;-62
2024/01/27 08:36:47;;;;;;;;;;;2.00;85.30;;;;;;5079957;28;19936;-62
2024/01/27 08:39:20;;;;;;;;;;;2.00;85.30;;;;;;5077013;28;19924;-61
2024/01/27 08:41:47;;;;;;;;;;;2.00;85.30;;;;;;5076057;28;19932;-62
2024/01/27 08:44:21;;;;;;;;;;;2.10;85.20;;;;;;5074384;28;19924;-62
2024/01/27 08:46:48;;;;;;;;;;;2.10;85.30;;;;;;5074985;28;19955;-61
2024/01/27 08:49:22;;;;;;;;;;;2.20;85.10;;;;;;5073065;28;20012;-62
2024/01/27 08:51:56;;;;;;;;;;;2.20;85.10;;;;;;5076034;28;19931;-61
2024/01/27 08:54:28;;;;;;;;;;;2.30;85.10;;;;;;5076926;28;19928;-62
2024/01/27 08:57:02;;;;;;;;;;;2.30;85.00;;;;;;5075453;28;19932;-62
2024/01/27 08:59:35;;;;;;;;;;;2.30;85.00;;;;;;5074776;28;19925;-61
2024/01/27 09:02:08;;;;;;;;;;;2.30;85.00;;;;;;5073413;28;19924;-62
2024/01/27 09:04:43;;;;;;;;;;;2.40;85.00;;;;;;5074636;28;19947;-61
2024/01/27 09:07:23;;;;;;;;;;;2.40;84.90;;;;;;5068897;28;19924;-62
2024/01/27 09:09:57;;;;;;;;;;;2.40;85.20;;;;;;5073525;28;19964;-62
2024/01/27 09:12:30;;;;;;;;;;;2.40;85.10;;;;;;5074524;28;19935;-61
2024/01/27 09:15:04;;;;;;;;;;;2.40;85.10;;;;;;5075181;28;19936;-64
2024/01/27 09:17:38;;;;;;;;;;;2.40;85.20;;;;;;5073256;28;19924;-60
2024/01/27 09:20:13;;;;;;;;;;;2.40;85.30;;;;;;5074754;28;20011;-63
2024/01/27 09:22:47;;;;;;;;;;;2.40;85.50;;;;;;5079651;28;19924;-61
2024/01/27 09:25:21;;;;;;;;;;;2.40;85.50;;;;;;5077796;28;19924;-61
2024/01/27 09:28:01;;;;;;;;;;;2.40;85.40;;;;;;5077841;28;19997;-61
2024/01/27 09:30:34;;;;;;;;;;;2.50;85.50;;;;;;5080736;28;19964;-60
2024/01/27 09:33:07;;;;;;;;;;;2.60;85.50;;;;;;5079641;28;20375;-62
2024/01/27 09:35:42;;;;;;;;;;;2.60;85.50;;;;;;5079261;28;20050;-62
2024/01/27 09:38:15;;;;;;;;;;;2.60;85.60;;;;;;5076857;28;20001;-62
2024/01/27 09:40:48;;;;;;;;;;;2.60;85.80;;;;;;5077850;28;20443;-61
2024/01/27 09:43:16;;;;;;;;;;;2.60;85.90;;;;;;5077302;28;20355;-63
2024/01/27 09:45:49;;;;;;;;;;;2.60;85.70;;;;;;5076875;28;19970;-60
2024/01/27 09:48:23;;;;;;;;;;;2.70;86.10;;;;;;5078483;28;19925;-62
2024/01/27 09:50:59;;;;;;;;;;;2.60;85.70;;;;;;5077990;28;19925;-62
2024/01/27 09:53:32;;;;;;;;;;;2.60;86.20;;;;;;5078450;28;21113;-61
2024/01/27 09:56:07;;;;;;;;;;;2.60;86.30;;;;;;5077038;28;19943;-61
2024/01/27 09:58:42;;;;;;;;;;;2.60;86.70;;;;;;5077068;28;20023;-62
2024/01/27 10:01:16;;;;;;;;;;;2.60;86.90;;;;;;5077422;28;19925;-61
2024/01/27 10:03:50;;;;;;;;;;;2.70;87.00;;;;;;5080140;28;19967;-61
2024/01/27 10:06:25;;;;;;;;;;;2.70;86.80;;;;;;5080902;28;19924;-62
2024/01/27 10:08:58;;;;;;;;;;;2.70;87.10;;;;;;5081593;28;20019;-62
2024/01/27 10:11:33;;;;;;;;;;;2.80;87.30;;;;;;5077414;28;19928;-60
2024/01/27 10:14:06;;;;;;;;;;;2.80;87.20;;;;;;5076932;28;19932;-60
2024/01/27 10:16:43;;;;;;;;;;;2.90;87.20;;;;;;5078172;28;19932;-62
2024/01/27 10:19:17;;;;;;;;;;;3.00;87.30;;;;;;5080926;28;20002;-62
2024/01/27 10:22:00;;;;;;;;;;;3.00;87.50;;;;;;5078817;28;20333;-62
2024/01/27 10:24:35;;;;;;;;;;;3.10;87.50;;;;;;5078248;28;19931;-62
2024/01/27 10:27:07;;;;;;;;;;;3.20;87.30;;;;;;5078162;28;20022;-62
2024/01/27 10:29:40;;;;;;;;;;;3.20;87.30;;;;;;5078343;28;19928;-62
2024/01/27 10:32:14;;;;;;;;;;;3.30;87.50;;;;;;5078112;28;19928;-61
2024/01/27 10:35:02;;;;;;;;;;;3.40;87.60;;;;;;5080001;28;19935;-62
2024/01/27 10:37:36;;;;;;;;;;;3.50;87.60;;;;;;5077991;28;20018;-61
2024/01/27 10:40:12;;;;;;;;;;;3.50;87.50;;;;;;5075993;28;19924;-62
2024/01/27 10:42:46;;;;;;;;;;;3.70;87.40;;;;;;5079141;28;19936;-61
2024/01/27 10:45:20;;;;;;;;;;;3.70;87.40;;;;;;5078344;28;19955;-62
2024/01/27 10:47:54;;;;;;;;;;;3.80;87.40;;;;;;5078247;28;20272;-63
2024/01/27 10:50:28;;;;;;;;;;;3.80;87.30;;;;;;5078915;28;19960;-61
2024/01/27 10:53:04;;;;;;;;;;;3.90;87.40;;;;;;5079447;28;19924;-61
2024/01/27 10:55:37;;;;;;;;;;;3.90;87.20;;;;;;5076371;28;19924;-61
2024/01/27 10:58:11;;;;;;;;;;;4.00;87.30;;;;;;5078396;28;19928;-61
2024/01/27 11:00:44;;;;;;;;;;;4.10;87.30;;;;;;5078002;28;19927;-61
2024/01/27 11:03:19;;;;;;;;;;;4.10;87.10;;;;;;5078904;28;19934;-62
2024/01/27 11:05:53;;;;;;;;;;;4.20;87.10;;;;;;5079470;28;20040;-62
2024/01/27 11:08:29;;;;;;;;;;;4.20;87.00;;;;;;5076566;28;21132;-61
2024/01/27 11:11:03;;;;;;;;;;;4.30;86.70;;;;;;5079745;28;19923;-78
2024/01/27 11:13:36;;;;;;;;;;;4.30;86.60;;;;;;5079389;28;20290;-78
2024/01/27 11:16:16;;;;;;;;;;;4.40;86.60;;;;;;5081015;28;19986;-76
2024/01/27 11:18:49;;;;;;;;;;;4.40;86.60;;;;;;5079392;28;19924;-78
2024/01/27 11:21:22;;;;;;;;;;;4.50;86.50;;;;;;5076476;28;19931;-77
2024/01/27 11:23:56;;;;;;;;;;;4.50;86.30;;;;;;5079975;28;19943;-78
2024/01/27 11:26:47;;;;;;;;;;;4.50;86.30;;;;;;5077051;28;20378;-76
2024/01/27 11:29:21;;;;;;;;;;;4.60;86.20;;;;;;5074167;28;19929;-78
2024/01/27 11:31:55;;;;;;;;;;;4.60;86.10;;;;;;5075404;28;19931;-77
2024/01/27 11:34:29;;;;;;;;;;;4.60;85.90;;;;;;5078924;28;20016;-77
2024/01/27 11:37:24;;;;;;;;;;;4.60;85.90;;;;;;5079024;28;21639;-76
2024/01/27 11:40:07;;;;;;;;;;;4.70;85.90;;;;;;5076462;28;19955;-76
2024/01/27 11:42:40;;;;;;;;;;;4.70;85.90;;;;;;5079052;28;20005;-78
2024/01/27 11:45:13;;;;;;;;;;;4.80;86.00;;;;;;5079002;28;19949;-80
2024/01/27 11:47:47;;;;;;;;;;;4.80;85.70;;;;;;5077343;28;20015;-78
2024/01/27 11:50:20;;;;;;;;;;;4.80;85.70;;;;;;5077259;28;19928;-78
2024/01/27 11:52:54;;;;;;;;;;;4.80;85.50;;;;;;5076918;28;19928;-78
2024/01/27 11:55:28;;;;;;;;;;;4.80;85.70;;;;;;5078197;28;19928;-80
2024/01/27 11:58:02;;;;;;;;;;;4.80;85.50;;;;;;5076193;28;19955;-71
2024/01/27 12:00:35;;;;;;;;;;;4.80;85.30;;;;;;5068720;28;19924;-78
2024/01/27 12:03:08;;;;;;;;;;;4.90;85.20;;;;;;5077361;28;20062;-78
2024/01/27 12:05:41;;;;;;;;;;;4.90;85.20;;;;;;5076510;28;19981;-77
2024/01/27 12:08:13;;;;;;;;;;;4.90;85.20;;;;;;5076109;28;19929;-78
2024/01/27 12:10:48;;;;;;;;;;;4.90;85.10;;;;;;5075762;28;20011;-77
2024/01/27 12:13:22;;;;;;;;;;;4.90;85.10;;;;;;5077048;28;19932;-77
2024/01/27 12:15:56;;;;;;;;;;;4.90;85.00;;;;;;5076834;28;19963;-76
2024/01/27 12:18:29;;;;;;;;;;;4.90;85.10;;;;;;5077122;28;20015;-77
2024/01/27 12:21:02;;;;;;;;;;;4.90;85.00;;;;;;5078956;28;20423;-65
2024/01/27 12:23:28;;;;;;;;;;;4.90;85.10;;;;;;5073031;28;19970;-62
2024/01/27 12:26:03;;;;;;;;;;;5.00;85.10;;;;;;5072637;28;19959;-62
2024/01/27 12:28:37;;;;;;;;;;;5.00;84.90;;;;;;5075067;28;19952;-62
2024/01/27 12:31:11;;;;;;;;;;;5.00;84.80;;;;;;5073156;28;19928;-60
2024/01/27 12:33:49;;;;;;;;;;;5.00;84.60;;;;;;5073276;28;19924;-62
2024/01/27 12:36:23;;;;;;;;;;;5.10;84.50;;;;;;5077894;28;20013;-62
2024/01/27 12:38:57;;;;;;;;;;;5.10;84.30;;;;;;5075927;28;20401;-61
2024/01/27 12:41:33;;;;;;;;;;;5.20;84.20;;;;;;5074275;28;19932;-62
2024/01/27 12:44:07;;;;;;;;;;;5.20;84.30;;;;;;5076117;28;19929;-62
2024/01/27 12:46:41;;;;;;;;;;;5.30;84.00;;;;;;5073549;28;19928;-61
2024/01/27 12:49:14;;;;;;;;;;;5.30;83.90;;;;;;5073293;28;19939;-61
2024/01/27 12:51:48;;;;;;;;;;;5.30;83.90;;;;;;5074978;28;19951;-61
2024/01/27 12:54:22;;;;;;;;;;;5.30;83.70;;;;;;5072245;28;19939;-61
2024/01/27 12:56:56;;;;;;;;;;;5.30;83.60;;;;;;5078152;28;19924;-62
2024/01/27 12:59:30;;;;;;;;;;;5.30;83.40;;;;;;5077565;28;19932;-62
2024/01/27 13:02:04;;;;;;;;;;;5.40;83.20;;;;;;5077366;28;19959;-61
2024/01/27 13:04:38;;;;;;;;;;;5.30;83.10;;;;;;5078734;28;19924;-62
2024/01/27 13:07:11;;;;;;;;;;;5.30;82.90;;;;;;5078327;28;19940;-60
2024/01/27 13:09:44;;;;;;;;;;;5.30;82.90;;;;;;5080379;28;19924;-61
2024/01/27 13:12:18;;;;;;;;;;;5.30;82.90;;;;;;5080224;28;19923;-62
2024/01/27 13:14:45;;;;;;;;;;;5.30;82.80;;;;;;5080215;28;19928;-61
2024/01/27 13:17:19;;;;;;;;;;;5.30;83.10;;;;;;5079011;28;19936;-61
2024/01/27 13:20:01;;;;;;;;;;;5.30;83.10;;;;;;5078372;28;19967;-62
2024/01/27 13:22:34;;;;;;;;;;;5.30;83.00;;;;;;5079480;28;19939;-62
2024/01/27 13:25:07;;;;;;;;;;;5.30;82.50;;;;;;5076938;28;19969;-62
2024/01/27 13:27:42;;;;;;;;;;;5.20;82.50;;;;;;5077732;28;21868;-61
2024/01/27 13:30:17;;;;;;;;;;;5.30;82.30;;;;;;5078385;28;19924;-62
2024/01/27 13:32:50;;;;;;;;;;;5.30;82.40;;;;;;5072438;28;19924;-61
2024/01/27 13:35:23;;;;;;;;;;;5.30;82.20;;;;;;5079392;28;19928;-63
2024/01/27 13:37:50;;;;;;;;;;;5.40;82.20;;;;;;5083070;28;19928;-62
2024/01/27 13:40:24;;;;;;;;;;;5.30;82.10;;;;;;5080137;28;19943;-63
2024/01/27 13:42:59;;;;;;;;;;;5.40;81.90;;;;;;5077263;28;20012;-62
2024/01/27 13:45:33;;;;;;;;;;;5.40;81.80;;;;;;5075739;28;19928;-62
2024/01/27 13:48:06;;;;;;;;;;;5.40;81.70;;;;;;5075142;28;20404;-63
2024/01/27 13:50:41;;;;;;;;;;;5.40;81.60;;;;;;5078824;28;19947;-63
2024/01/27 13:53:14;;;;;;;;;;;5.40;81.50;;;;;;5077040;28;19925;-62
2024/01/27 13:55:47;;;;;;;;;;;5.40;81.50;;;;;;5075123;28;19958;-63
2024/01/27 14:02:00;;;;;;;;;;;5.50;81.10;;;;;;5185152;27;19933;-63
2024/01/27 14:04:34;;;;;;;;;;;5.40;81.20;;;;;;5177458;27;20683;-65
2024/01/27 14:07:09;;;;;;;;;;;5.40;81.50;;;;;;5178287;27;19949;-63
2024/01/27 14:09:44;;;;;;;;;;;5.40;81.30;;;;;;5178541;27;19978;-63
2024/01/27 14:12:33;;;;;;;;;;;5.40;81.50;;;;;;5174415;27;20026;-62
2024/01/27 14:15:08;;;;;;;;;;;5.40;81.50;;;;;;5176918;27;19933;-64
2024/01/27 14:17:43;;;;;;;;;;;5.40;81.60;;;;;;5176536;27;19929;-64
2024/01/27 14:20:16;;;;;;;;;;;5.40;81.70;;;;;;5177302;27;19931;-63
2024/01/27 14:22:49;;;;;;;;;;;5.40;81.60;;;;;;5177706;27;19923;-63
2024/01/27 14:25:29;;;;;;;;;;;5.40;81.70;;;;;;5177406;27;19934;-64
2024/01/27 14:28:02;;;;;;;;;;;5.30;81.70;;;;;;5177748;27;19930;-64
2024/01/27 14:30:36;;;;;;;;;;;5.40;81.50;;;;;;5175805;27;19923;-64
2024/01/27 14:33:11;;;;;;;;;;;5.40;81.40;;;;;;5176395;27;19958;-64
2024/01/27 14:35:44;;;;;;;;;;;5.30;81.50;;;;;;5176582;27;19923;-64
2024/01/27 14:38:17;;;;;;;;;;;5.40;81.30;;;;;;5174971;27;19930;-65
2024/01/27 14:40:50;;;;;;;;;;;5.30;81.20;;;;;;5176514;27;19949;-64
2024/01/27 14:43:23;;;;;;;;;;;5.30;81.30;;;;;;5174633;27;19930;-63
2024/01/27 14:45:57;;;;;;;;;;;5.30;81.40;;;;;;5177187;27;19957;-64
2024/01/27 14:48:32;;;;;;;;;;;5.30;81.20;;;;;;5178631;27;20026;-65
2024/01/27 14:51:07;;;;;;;;;;;5.30;81.10;;;;;;5176608;27;19934;-64
2024/01/27 14:53:40;;;;;;;;;;;5.30;81.30;;;;;;5175611;27;19980;-64
2024/01/27 14:56:12;;;;;;;;;;;5.20;81.50;;;;;;5175496;27;19931;-61
2024/01/27 14:58:51;;;;;;;;;;;5.20;81.60;;;;;;5176201;27;19954;-62
2024/01/27 15:01:24;;;;;;;;;;;5.20;81.50;;;;;;5177721;27;19930;-62
2024/01/27 15:04:00;;;;;;;;;;;5.20;81.50;;;;;;5177070;27;19926;-66
2024/01/27 15:06:33;;;;;;;;;;;5.20;81.50;;;;;;5176598;27;20361;-63
2024/01/27 15:09:07;;;;;;;;;;;5.20;81.50;;;;;;5175324;27;19934;-63
2024/01/27 15:11:46;;;;;;;;;;;5.20;81.90;;;;;;5167649;27;19954;-63
2024/01/27 15:14:20;;;;;;;;;;;5.20;81.80;;;;;;5163718;27;20408;-62
2024/01/27 15:16:57;;;;;;;;;;;5.20;81.80;;;;;;5161262;27;19931;-62